KCRS/CRS METAR and TAF weather

Enter ICAO airport designator
Station Type Date Time Source
KCRS METAR 2022/07/01 00:53 UTC NOAA

KCRS 010053Z AUTO 14013G19KT 10SM CLR 33/19 A2994 RMK AO2 SLP131 T03330194


Station Type Date Time Source
KCRS Decoded METAR 2022/07/01 00:53 UTC NOAA

CORSICANA AIRFIELD, TX, United States (KCRS) 32-01N 96-23W 133M
Jun 30, 2022 - 08:53 PM EDT / 2022.07.01 0053 UTC
Wind: from the SE (140 degrees) at 15 MPH (13 KT) gusting to 22 MPH (19 KT):0
Visibility: 10 mile(s):0
Sky conditions: clear
Temperature: 91.9 F (33.3 C)
Heat index: 95.4 F (35.2 C):1
Dew Point: 66.9 F (19.4 C)
Relative Humidity: 44%
Pressure (altimeter): 29.94 in. Hg (1013 hPa)
ob: KCRS 010053Z AUTO 14013G19KT 10SM CLR 33/19 A2994 RMK AO2 SLP131 T03330194
cycle: 1

Station Type Date Time Source
KCRS TAF UTC NOAA

Error!

Example: see airport list